Time;durP1;ratioP1;P1;durP2;ratioP2;P2;SDS_P1;SDS_P2;PMS_P1;PMS_P2;Temp;Humidity;BMP_temperature;BMP_pressure;BME280_temperature;BME280_humidity;BME280_pressure;Samples;Min_cycle;Max_cycle;Signal;HPM_P1;HPM_P2
2023/07/25 00:01:20;;;;;;;18.27;11.05;;;;;;;22.76;47.49;100818.13;5033396;28;20488;-35
2023/07/25 00:03:49;;;;;;;18.15;10.05;;;;;;;22.75;47.74;100818.28;5035901;28;20053;-34
2023/07/25 00:06:17;;;;;;;16.60;10.00;;;;;;;22.74;47.64;100817.47;5029868;28;20052;-35
2023/07/25 00:08:44;;;;;;;15.35;9.82;;;;;;;22.73;47.69;100809.56;5026010;28;20103;-36
2023/07/25 00:11:14;;;;;;;17.27;10.40;;;;;;;22.73;47.65;100812.25;5029007;28;20057;-35
2023/07/25 00:13:41;;;;;;;15.75;9.00;;;;;;;22.71;47.96;100811.59;5027340;28;20064;-34
2023/07/25 00:16:07;;;;;;;15.52;9.98;;;;;;;22.69;47.80;100811.78;5026361;28;20034;-36
2023/07/25 00:18:35;;;;;;;15.48;9.85;;;;;;;22.70;47.80;100809.91;5028642;28;20053;-34
2023/07/25 00:21:01;;;;;;;14.70;8.50;;;;;;;22.69;47.85;100811.78;5027611;28;20045;-35
2023/07/25 00:23:28;;;;;;;15.65;9.40;;;;;;;22.67;48.12;100803.88;5027491;28;20053;-35
2023/07/25 00:25:54;;;;;;;15.05;9.07;;;;;;;22.67;48.03;100805.72;5026518;28;20068;-35
2023/07/25 00:28:22;;;;;;;15.95;8.65;;;;;;;22.66;48.34;100804.88;5027856;28;20346;-35
2023/07/25 00:30:49;;;;;;;14.55;8.68;;;;;;;22.65;47.96;100811.31;5025491;28;20073;-34
2023/07/25 00:33:16;;;;;;;15.82;8.93;;;;;;;22.64;48.07;100803.41;5026950;28;20459;-35
2023/07/25 00:35:50;;;;;;;12.35;8.10;;;;;;;22.63;48.31;100807.97;5028168;28;20060;-36
2023/07/25 00:38:17;;;;;;;13.15;8.63;;;;;;;22.63;47.94;100812.50;5026978;28;20138;-35
2023/07/25 00:40:43;;;;;;;13.63;8.30;;;;;;;22.62;48.73;100806.28;5026496;28;20175;-36
2023/07/25 00:43:10;;;;;;;14.35;8.27;;;;;;;22.61;48.34;100806.47;5024472;28;20545;-35
2023/07/25 00:45:37;;;;;;;12.88;7.93;;;;;;;22.60;48.05;100797.53;5026316;28;20049;-35
2023/07/25 00:48:04;;;;;;;11.52;6.82;;;;;;;22.59;48.27;100806.66;5026657;28;20437;-35
2023/07/25 00:50:31;;;;;;;10.93;7.15;;;;;;;22.59;48.09;100806.66;5025621;28;20049;-35
2023/07/25 00:52:58;;;;;;;13.43;7.55;;;;;;;22.57;48.47;100806.00;5024428;28;20076;-35
2023/07/25 00:55:27;;;;;;;11.57;7.20;;;;;;;22.56;48.42;100806.19;5028999;28;20060;-35
2023/07/25 00:57:54;;;;;;;13.45;7.20;;;;;;;22.55;48.53;100802.66;5029234;28;20056;-34
2023/07/25 01:00:21;;;;;;;13.25;6.57;;;;;;;22.55;48.51;100799.09;5024801;28;20057;-35
2023/07/25 01:02:48;;;;;;;11.27;7.10;;;;;;;22.54;48.29;100800.13;5025666;28;20052;-34
2023/07/25 01:05:15;;;;;;;11.43;6.65;;;;;;;22.53;48.25;100804.69;5025410;28;20679;-35
2023/07/25 01:07:42;;;;;;;10.23;6.22;;;;;;;22.53;48.57;100804.69;5044938;28;20080;-34
2023/07/25 01:10:08;;;;;;;11.88;6.75;;;;;;;22.51;48.24;100801.31;5025738;28;20107;-35
2023/07/25 01:12:35;;;;;;;11.48;6.55;;;;;;;22.51;48.31;100803.19;5024888;28;20046;-35
2023/07/25 01:15:02;;;;;;;10.52;6.05;;;;;;;22.51;48.39;100798.63;5024422;28;20135;-34
2023/07/25 01:17:28;;;;;;;10.35;6.45;;;;;;;22.50;48.52;100801.50;5027697;28;20057;-34
2023/07/25 01:19:55;;;;;;;12.02;6.90;;;;;;;22.50;48.35;100799.66;5028470;28;20041;-35
2023/07/25 01:22:25;;;;;;;11.32;6.40;;;;;;;22.49;48.51;100802.53;5030191;28;20295;-34
2023/07/25 01:24:54;;;;;;;9.30;5.88;;;;;;;22.48;48.80;100800.88;5031409;28;20073;-34
2023/07/25 01:27:21;;;;;;;9.90;6.75;;;;;;;22.47;48.33;100791.06;5034590;28;20130;-35
2023/07/25 01:29:47;;;;;;;8.10;5.53;;;;;;;22.46;48.38;100790.22;5036706;28;20049;-35
2023/07/25 01:32:14;;;;;;;8.80;5.50;;;;;;;22.46;48.51;100794.78;5033035;28;20124;-35
2023/07/25 01:34:40;;;;;;;8.75;5.55;;;;;;;22.44;48.82;100792.28;5035967;28;20045;-34
2023/07/25 01:37:08;;;;;;;9.05;5.68;;;;;;;22.45;48.74;100791.25;5036630;28;20429;-34
2023/07/25 01:39:35;;;;;;;8.02;4.78;;;;;;;22.44;48.43;100788.75;5035752;28;20045;-34
2023/07/25 01:42:02;;;;;;;10.07;5.93;;;;;;;22.43;48.69;100793.28;5034866;28;20049;-34
2023/07/25 01:44:28;;;;;;;9.65;5.50;;;;;;;22.42;48.65;100787.06;5034333;28;20115;-34
2023/07/25 01:46:57;;;;;;;8.02;5.07;;;;;;;22.41;48.60;100788.09;5036051;28;20107;-35
2023/07/25 01:49:23;;;;;;;8.85;5.47;;;;;;;22.40;48.93;100786.41;5035146;28;20107;-35
2023/07/25 01:51:50;;;;;;;8.40;5.07;;;;;;;22.41;48.81;100779.16;5035100;28;20351;-35
2023/07/25 01:54:17;;;;;;;7.63;4.82;;;;;;;22.39;49.17;100778.47;5034329;28;20104;-35
2023/07/25 01:56:44;;;;;;;7.50;4.82;;;;;;;22.39;48.98;100782.03;5035411;28;20347;-34
2023/07/25 01:59:16;;;;;;;7.43;4.75;;;;;;;22.38;48.96;100783.03;5034537;28;20049;-34
2023/07/25 02:01:43;;;;;;;9.45;5.10;;;;;;;22.38;48.87;100779.50;5032368;28;20111;-36
2023/07/25 02:04:10;;;;;;;7.88;5.00;;;;;;;22.37;48.67;100783.25;5034681;28;20081;-35
2023/07/25 02:06:36;;;;;;;8.75;4.75;;;;;;;22.36;48.71;100778.88;5035202;28;20048;-34
2023/07/25 02:09:03;;;;;;;6.28;3.83;;;;;;;22.35;49.08;100764.53;5034211;28;20617;-36
2023/07/25 02:11:29;;;;;;;8.40;4.47;;;;;;;22.35;49.04;100766.38;5032309;28;20098;-35
2023/07/25 02:13:56;;;;;;;6.78;4.25;;;;;;;22.34;49.24;100762.84;5032742;28;20057;-34
2023/07/25 02:16:23;;;;;;;8.70;4.57;;;;;;;22.33;48.86;100761.16;5033777;28;20045;-34
2023/07/25 02:18:50;;;;;;;7.43;4.43;;;;;;;22.33;49.04;100768.44;5036674;28;20455;-35
2023/07/25 02:21:16;;;;;;;9.23;4.15;;;;;;;22.33;48.91;100763.03;5041101;28;20049;-35
2023/07/25 02:23:43;;;;;;;6.65;4.10;;;;;;;22.33;48.82;100763.03;5043804;28;20148;-36
2023/07/25 02:26:09;;;;;;;8.10;4.32;;;;;;;22.32;48.90;100774.88;5040513;28;20041;-35
2023/07/25 02:28:36;;;;;;;8.35;4.10;;;;;;;22.31;49.16;100770.47;5031881;28;20468;-35
2023/07/25 02:31:02;;;;;;;7.78;3.80;;;;;;;22.30;48.92;100766.09;5028541;28;20447;-34
2023/07/25 02:33:29;;;;;;;7.03;4.20;;;;;;;22.30;48.90;100766.09;5035873;28;20347;-35
2023/07/25 02:35:56;;;;;;;7.93;4.10;;;;;;;22.29;49.12;100775.22;5041510;28;20049;-34
2023/07/25 02:38:23;;;;;;;6.65;4.13;;;;;;;22.31;49.17;100767.75;5029939;28;20095;-35
2023/07/25 02:40:50;;;;;;;7.20;4.15;;;;;;;22.29;49.03;100767.13;5033939;28;20993;-34
2023/07/25 02:43:17;;;;;;;5.82;3.50;;;;;;;22.28;49.15;100763.59;5026347;28;20424;-34
2023/07/25 02:45:43;;;;;;;7.05;4.35;;;;;;;22.28;49.34;100770.84;5035632;28;20363;-36
2023/07/25 02:48:10;;;;;;;7.18;3.40;;;;;;;22.26;49.20;100772.88;5028936;28;20050;-33
2023/07/25 02:50:36;;;;;;;5.03;3.15;;;;;;;22.27;49.15;100777.25;5039566;28;20136;-33
2023/07/25 02:53:03;;;;;;;6.57;3.70;;;;;;;22.25;49.03;100772.03;5039516;28;20488;-34
2023/07/25 02:55:29;;;;;;;7.88;4.00;;;;;;;22.25;49.19;100771.22;5038374;28;20119;-34
2023/07/25 02:57:56;;;;;;;5.80;3.42;;;;;;;22.24;49.18;100773.06;5039164;28;20106;-33
2023/07/25 03:00:23;;;;;;;4.63;3.05;;;;;;;22.24;48.95;100772.25;5041089;28;20314;-35
2023/07/25 03:02:50;;;;;;;4.53;3.20;;;;;;;22.23;48.89;100771.41;5036597;28;20143;-33
2023/07/25 03:05:17;;;;;;;4.93;2.95;;;;;;;22.23;48.98;100775.94;5037065;28;20795;-35
2023/07/25 03:07:44;;;;;;;5.75;2.97;;;;;;;22.22;48.99;100767.00;5035599;28;20052;-34
2023/07/25 03:10:10;;;;;;;5.32;2.92;;;;;;;22.22;49.18;100782.38;5032714;28;20391;-34
2023/07/25 03:12:37;;;;;;;4.82;2.88;;;;;;;22.22;49.29;100774.28;5031407;28;20072;-34
2023/07/25 03:15:04;;;;;;;4.85;3.00;;;;;;;22.21;49.05;100773.44;5032687;28;20330;-34
2023/07/25 03:17:31;;;;;;;4.65;3.10;;;;;;;22.20;49.03;100773.63;5031200;28;20461;-34
2023/07/25 03:19:58;;;;;;;4.78;2.90;;;;;;;22.19;49.18;100770.06;5030359;28;20084;-34
2023/07/25 03:22:24;;;;;;;3.63;2.30;;;;;;;22.17;49.06;100775.66;5030586;28;20430;-34
2023/07/25 03:24:51;;;;;;;5.00;2.80;;;;;;;22.18;49.04;100780.03;5033159;28;20046;-34
2023/07/25 03:27:18;;;;;;;4.50;2.50;;;;;;;22.17;49.29;100777.53;5033036;28;20103;-33
2023/07/25 03:29:44;;;;;;;6.03;2.45;;;;;;;22.17;49.12;100772.94;5033723;28;20085;-34
2023/07/25 03:32:11;;;;;;;3.95;2.85;;;;;;;22.17;49.01;100782.91;5031035;28;20049;-34
2023/07/25 03:34:38;;;;;;;4.68;2.95;;;;;;;22.17;49.17;100775.66;5029057;28;20493;-35
2023/07/25 03:37:05;;;;;;;5.75;2.67;;;;;;;22.17;49.17;100772.94;5032792;28;20045;-33
2023/07/25 03:39:31;;;;;;;4.82;2.55;;;;;;;22.17;49.31;100766.72;5027549;28;20045;-34
2023/07/25 03:41:58;;;;;;;4.95;2.72;;;;;;;22.17;49.36;100762.16;5027636;28;20191;-34
2023/07/25 03:44:24;;;;;;;4.85;2.65;;;;;;;22.17;49.17;100756.75;5029820;28;20119;-34
2023/07/25 03:46:51;;;;;;;4.20;2.47;;;;;;;22.16;49.16;100757.78;5033586;28;20123;-34
2023/07/25 03:49:18;;;;;;;4.55;2.28;;;;;;;22.17;49.22;100759.47;5036892;28;20081;-35
2023/07/25 03:51:44;;;;;;;5.07;2.60;;;;;;;22.17;49.39;100755.91;5035798;28;20045;-34
2023/07/25 03:54:11;;;;;;;4.50;2.40;;;;;;;22.17;48.96;100762.16;5036051;28;20123;-35
2023/07/25 03:56:37;;;;;;;4.25;2.42;;;;;;;22.17;49.14;100769.41;5036769;28;20587;-35
2023/07/25 03:59:04;;;;;;;4.88;2.22;;;;;;;22.17;49.51;100769.41;5033143;28;20581;-34
2023/07/25 04:01:31;;;;;;;3.85;1.98;;;;;;;22.17;49.33;100772.94;5031246;28;20049;-33
2023/07/25 04:03:58;;;;;;;4.85;2.40;;;;;;;22.17;49.21;100770.25;5026465;28;20045;-36
2023/07/25 04:06:24;;;;;;;4.60;2.25;;;;;;;22.17;49.14;100762.16;5039239;28;20077;-35
2023/07/25 04:08:51;;;;;;;4.85;2.28;;;;;;;22.17;49.47;100770.25;5034644;28;20056;-34
2023/07/25 04:11:18;;;;;;;3.50;2.33;;;;;;;22.16;49.42;100771.28;5035740;28;20808;-34
2023/07/25 04:13:44;;;;;;;3.53;2.20;;;;;;;22.17;49.70;100772.94;5031575;28;20102;-35
2023/07/25 04:16:11;;;;;;;4.82;2.20;;;;;;;22.17;49.15;100772.13;5032177;28;20044;-33
2023/07/25 04:18:38;;;;;;;3.10;2.00;;;;;;;22.16;49.17;100774.00;5026668;28;20063;-36
2023/07/25 04:21:04;;;;;;;4.13;1.92;;;;;;;22.17;49.32;100775.66;5028528;28;20448;-34
2023/07/25 04:23:31;;;;;;;5.65;1.90;;;;;;;22.15;49.49;100777.72;5028951;28;20045;-34
2023/07/25 04:25:57;;;;;;;3.78;2.00;;;;;;;22.16;49.25;100794.75;5030364;28;20079;-34
2023/07/25 04:28:24;;;;;;;3.65;2.15;;;;;;;22.16;49.43;100795.59;5024200;28;20130;-34
2023/07/25 04:30:51;;;;;;;3.47;1.90;;;;;;;22.16;49.13;100795.59;5028084;28;20080;-34
2023/07/25 04:33:17;;;;;;;4.63;2.42;;;;;;;22.16;49.38;100792.03;5028237;28;20151;-34
2023/07/25 04:35:45;;;;;;;11.07;5.45;;;;;;;22.17;49.21;100782.91;5028843;28;20056;-34
2023/07/25 04:38:13;;;;;;;17.95;9.93;;;;;;;22.16;48.97;100792.88;5035015;28;20041;-35
2023/07/25 04:40:42;;;;;;;17.48;10.75;;;;;;;22.15;48.80;100796.63;5031676;28;20049;-34
2023/07/25 04:43:09;;;;;;;22.83;11.40;;;;;;;22.14;48.79;100792.22;5032970;28;20639;-34
2023/07/25 04:45:37;;;;;;;22.00;12.10;;;;;;;22.15;48.82;100802.00;5032262;28;20053;-34
2023/07/25 04:48:04;;;;;;;19.90;9.38;;;;;;;22.14;48.39;100794.06;5032237;28;20715;-34
2023/07/25 04:50:31;;;;;;;17.20;9.77;;;;;;;22.12;48.57;100796.09;5031740;28;20091;-34
2023/07/25 04:52:57;;;;;;;18.05;8.48;;;;;;;22.13;48.57;100808.59;5035685;28;20099;-35
2023/07/25 04:55:24;;;;;;;14.10;7.85;;;;;;;22.12;48.26;100801.50;5037785;28;20057;-34
2023/07/25 04:57:51;;;;;;;13.00;7.85;;;;;;;22.12;48.44;100799.63;5033629;28;20099;-34
2023/07/25 05:00:17;;;;;;;13.93;7.65;;;;;;;22.12;48.40;100799.63;5029693;28;20108;-33
2023/07/25 05:02:44;;;;;;;14.48;6.70;;;;;;;22.11;48.24;100797.09;5034026;28;20088;-34
2023/07/25 05:05:11;;;;;;;13.35;6.70;;;;;;;22.11;48.25;100805.19;5034805;28;20201;-34
2023/07/25 05:07:37;;;;;;;10.10;5.93;;;;;;;22.11;48.31;100806.06;5032946;28;20045;-34
2023/07/25 05:10:04;;;;;;;11.93;5.72;;;;;;;22.12;48.57;100815.00;5032632;28;20126;-34
2023/07/25 05:12:31;;;;;;;10.98;5.38;;;;;;;22.12;47.93;100815.00;5033095;28;20045;-34
2023/07/25 05:14:58;;;;;;;16.75;5.43;;;;;;;22.11;48.49;100811.47;5032507;28;20123;-34
2023/07/25 05:17:24;;;;;;;10.07;4.63;;;;;;;22.12;48.51;100813.13;5034698;28;20091;-34
2023/07/25 05:19:51;;;;;;;8.68;4.78;;;;;;;22.13;48.09;100811.31;5034635;28;20434;-34
2023/07/25 05:22:17;;;;;;;10.25;4.10;;;;;;;22.14;48.17;100818.38;5036209;28;20042;-34
2023/07/25 05:24:44;;;;;;;7.80;4.07;;;;;;;22.13;48.33;100812.13;5035432;28;20057;-33
2023/07/25 05:27:11;;;;;;;8.02;3.95;;;;;;;22.15;48.35;100817.34;5035727;28;20422;-35
2023/07/25 05:29:37;;;;;;;6.85;3.30;;;;;;;22.14;47.81;100821.91;5036178;28;20069;-35
2023/07/25 05:32:04;;;;;;;9.73;3.45;;;;;;;22.15;48.47;100812.81;5037093;28;20081;-34
2023/07/25 05:34:31;;;;;;;7.35;2.90;;;;;;;22.17;48.24;100805.34;5034165;28;20056;-33
2023/07/25 05:36:57;;;;;;;7.10;2.30;;;;;;;22.17;48.17;100809.91;5034059;28;20481;-34
2023/07/25 05:39:24;;;;;;;7.43;2.10;;;;;;;22.17;48.12;100810.75;5034229;28;20448;-34
2023/07/25 05:41:51;;;;;;;7.63;2.53;;;;;;;22.17;48.34;100808.06;5036756;28;20073;-33
2023/07/25 05:44:17;;;;;;;5.15;2.60;;;;;;;22.17;48.01;100813.44;5035380;28;20133;-35
2023/07/25 05:46:44;;;;;;;5.80;1.90;;;;;;;22.17;48.28;100824.25;5035582;28;20115;-35
2023/07/25 05:49:10;;;;;;;6.47;1.88;;;;;;;22.17;48.16;100826.13;5035069;28;20102;-34
2023/07/25 05:51:37;;;;;;;7.38;1.73;;;;;;;22.16;48.13;100819.88;5034344;28;20042;-34
2023/07/25 05:54:03;;;;;;;8.38;1.83;;;;;;;22.17;48.12;100823.41;5036280;28;20057;-34
2023/07/25 05:56:30;;;;;;;9.23;1.83;;;;;;;22.17;47.95;100826.94;5033708;28;20145;-36
2023/07/25 05:58:56;;;;;;;10.18;1.88;;;;;;;22.17;48.14;100821.56;5035170;28;20582;-34
2023/07/25 06:01:23;;;;;;;6.68;1.70;;;;;;;22.17;47.88;100820.72;5038917;28;20130;-34
2023/07/25 06:03:50;;;;;;;9.35;1.77;;;;;;;22.18;47.88;100820.53;5037246;28;20057;-36
2023/07/25 06:06:16;;;;;;;7.85;1.83;;;;;;;22.18;48.03;100817.81;5037369;28;20521;-34
2023/07/25 06:08:43;;;;;;;6.53;1.83;;;;;;;22.17;47.72;100826.94;5035994;28;20127;-35
2023/07/25 06:11:10;;;;;;;7.03;2.00;;;;;;;22.18;47.79;100822.38;5034921;28;20136;-34
2023/07/25 06:13:36;;;;;;;6.75;1.30;;;;;;;22.18;47.87;100833.19;5034824;28;20396;-34
2023/07/25 06:16:03;;;;;;;11.88;2.20;;;;;;;22.18;47.91;100831.31;5031769;28;21642;-34
2023/07/25 06:18:30;;;;;;;6.85;2.22;;;;;;;22.18;47.82;100842.13;5032691;28;20107;-34
2023/07/25 06:20:57;;;;;;;10.63;2.72;;;;;;;22.19;48.17;100837.56;5033258;28;20080;-33
2023/07/25 06:23:23;;;;;;;11.02;3.42;;;;;;;22.18;48.11;100831.31;5036699;28;20666;-34
2023/07/25 06:25:50;;;;;;;16.33;3.28;;;;;;;22.21;48.17;100838.22;5034510;28;20105;-34
2023/07/25 06:28:16;;;;;;;12.70;3.13;;;;;;;22.21;48.24;100834.69;5032212;28;20045;-34
2023/07/25 06:30:43;;;;;;;13.65;3.63;;;;;;;22.22;48.00;100836.38;5031126;28;20140;-35
2023/07/25 06:33:13;;;;;;;18.15;3.22;;;;;;;22.21;48.07;100827.44;5032403;28;20359;-34
2023/07/25 06:35:40;;;;;;;15.77;4.18;;;;;;;22.22;48.39;100829.09;5035526;28;20311;-33
2023/07/25 06:38:06;;;;;;;14.23;3.67;;;;;;;22.22;48.22;100829.09;5037814;28;20355;-34
2023/07/25 06:40:33;;;;;;;12.77;3.20;;;;;;;22.22;48.16;100828.25;5041528;28;20684;-34
2023/07/25 06:42:59;;;;;;;12.63;3.33;;;;;;;22.21;47.72;100827.44;5040268;28;20134;-34
2023/07/25 06:45:26;;;;;;;15.75;3.70;;;;;;;22.21;48.21;100823.91;5043532;28;20048;-35
2023/07/25 06:47:53;;;;;;;13.48;2.60;;;;;;;22.20;48.17;100825.75;5037757;28;20049;-34
2023/07/25 06:50:20;;;;;;;7.78;2.67;;;;;;;22.21;47.97;100830.13;5038358;28;20431;-35
2023/07/25 06:52:46;;;;;;;12.65;3.00;;;;;;;22.22;48.22;100826.41;5037211;28;20137;-34
2023/07/25 06:55:13;;;;;;;8.13;2.40;;;;;;;22.22;47.81;100826.41;5040855;28;20088;-34
2023/07/25 06:57:40;;;;;;;8.30;2.13;;;;;;;22.23;47.73;100832.63;5036036;28;20041;-34
2023/07/25 07:00:07;;;;;;;11.23;2.20;;;;;;;22.23;47.48;100836.19;5040364;28;20124;-34
2023/07/25 07:02:34;;;;;;;8.10;2.50;;;;;;;22.22;47.30;100837.19;5037244;28;20104;-35
2023/07/25 07:05:01;;;;;;;9.82;2.13;;;;;;;22.22;47.40;100833.66;5036401;28;20128;-34
2023/07/25 07:07:40;;;;;;;9.73;1.98;;;;;;;22.22;47.30;100833.66;5036042;28;20147;-34
2023/07/25 07:10:06;;;;;;;7.65;1.98;;;;;;;22.21;47.42;100829.28;5031957;28;20103;-36
2023/07/25 07:12:33;;;;;;;10.55;1.77;;;;;;;22.22;47.37;100830.97;5032210;28;20089;-34
2023/07/25 07:15:00;;;;;;;4.53;1.58;;;;;;;22.21;46.85;100824.72;5029647;28;20084;-34
2023/07/25 07:17:26;;;;;;;6.85;1.30;;;;;;;22.22;47.22;100826.41;5031359;28;20084;-36
2023/07/25 07:19:54;;;;;;;5.30;1.55;;;;;;;22.22;46.92;100822.88;5031257;28;20054;-34
2023/07/25 07:22:20;;;;;;;10.27;1.90;;;;;;;22.21;46.76;100819.31;5032674;28;20158;-34
2023/07/25 07:24:47;;;;;;;6.38;1.38;;;;;;;22.21;46.58;100827.44;5031512;28;20053;-34
2023/07/25 07:27:14;;;;;;;6.05;1.30;;;;;;;22.22;46.37;100822.88;5031235;28;20045;-34
2023/07/25 07:29:40;;;;;;;6.88;1.50;;;;;;;22.22;46.27;100822.88;5031513;28;20091;-34
2023/07/25 07:32:07;;;;;;;5.32;1.40;;;;;;;22.22;46.00;100818.31;5030574;28;20087;-34
2023/07/25 07:34:34;;;;;;;7.97;1.55;;;;;;;22.22;46.00;100821.00;5034897;28;20076;-34
2023/07/25 07:37:00;;;;;;;7.03;1.70;;;;;;;22.23;45.73;100824.53;5032578;28;20053;-34
2023/07/25 07:39:27;;;;;;;8.05;1.88;;;;;;;22.23;45.46;100816.44;5029641;28;20053;-34
2023/07/25 07:41:54;;;;;;;5.97;2.00;;;;;;;22.23;45.40;100829.94;5032472;28;20096;-35
2023/07/25 07:44:20;;;;;;;8.70;2.53;;;;;;;22.23;45.43;100832.63;5030054;28;20045;-34
2023/07/25 07:46:50;;;;;;;7.57;1.90;;;;;;;22.23;45.19;100832.63;5030345;28;20041;-34
2023/07/25 07:49:17;;;;;;;5.90;1.80;;;;;;;22.23;45.30;100844.31;5030730;28;20049;-33
2023/07/25 07:51:43;;;;;;;8.30;1.77;;;;;;;22.23;44.95;100836.19;5033009;28;20085;-34
2023/07/25 07:54:23;;;;;;;5.97;1.80;;;;;;;22.23;44.88;100841.59;5033025;28;20050;-34
2023/07/25 07:56:49;;;;;;;8.55;2.38;;;;;;;22.22;44.38;100845.31;5031598;28;20068;-34
2023/07/25 07:59:16;;;;;;;5.38;1.52;;;;;;;22.22;44.31;100844.47;5031175;28;20799;-33
2023/07/25 08:01:43;;;;;;;6.93;1.50;;;;;;;22.21;43.76;100832.84;5034666;28;20544;-34
2023/07/25 08:04:11;;;;;;;6.10;1.48;;;;;;;22.21;44.03;100848.19;5036414;28;20674;-34
2023/07/25 08:06:37;;;;;;;4.15;1.23;;;;;;;22.21;43.63;100842.78;5037590;28;20037;-33
2023/07/25 08:09:04;;;;;;;3.83;1.23;;;;;;;22.18;43.30;100844.81;5030136;28;20107;-35
2023/07/25 08:11:31;;;;;;;5.82;1.75;;;;;;;22.17;43.34;100850.41;5035880;28;20049;-34
2023/07/25 08:13:57;;;;;;;3.78;1.08;;;;;;;22.17;43.23;100848.53;5034020;28;20041;-33
2023/07/25 08:16:24;;;;;;;3.97;0.90;;;;;;;22.17;43.50;100845.84;5036380;28;20514;-34
2023/07/25 08:18:51;;;;;;;6.75;1.48;;;;;;;22.19;43.56;100851.06;5035517;28;20045;-33
2023/07/25 08:21:18;;;;;;;4.78;1.20;;;;;;;22.17;43.04;100848.53;5038384;28;20115;-34
2023/07/25 08:23:45;;;;;;;4.50;1.02;;;;;;;22.17;42.88;100855.81;5035043;28;20354;-34
2023/07/25 08:26:12;;;;;;;4.28;1.02;;;;;;;22.18;42.80;100854.78;5030130;28;20046;-34
2023/07/25 08:28:38;;;;;;;2.60;1.20;;;;;;;22.17;42.57;100853.94;5031983;28;20049;-33
2023/07/25 08:31:06;;;;;;;5.80;1.08;;;;;;;22.18;42.75;100857.47;5033067;28;20041;-33
2023/07/25 08:33:34;;;;;;;6.07;1.35;;;;;;;22.16;42.44;100857.69;5027966;28;20342;-35
2023/07/25 08:36:02;;;;;;;7.13;1.20;;;;;;;22.16;42.17;100868.47;5035630;28;20302;-38
2023/07/25 08:38:28;;;;;;;5.00;1.00;;;;;;;22.16;42.27;100868.47;5038118;28;20071;-37
2023/07/25 08:41:03;;;;;;;5.20;0.70;;;;;;;22.17;42.37;100872.00;5038842;28;20107;-37
2023/07/25 08:43:36;;;;;;;7.68;0.90;;;;;;;22.17;42.05;100875.53;5033586;28;20080;-37
2023/07/25 08:46:07;;;;;;;4.63;1.00;;;;;;;22.17;41.70;100870.16;5034297;28;20099;-34
2023/07/25 08:48:38;;;;;;;6.72;1.10;;;;;;;22.18;41.88;100881.78;5030646;28;20056;-34
2023/07/25 08:51:20;;;;;;;5.15;1.10;;;;;;;22.17;42.06;100875.53;5035300;28;20479;-35
2023/07/25 08:53:54;;;;;;;5.13;0.88;;;;;;;22.18;41.66;100868.28;5030642;28;20053;-34
2023/07/25 08:56:22;;;;;;;3.28;0.75;;;;;;;22.18;41.45;100882.63;5035430;28;20083;-34
2023/07/25 08:58:50;;;;;;;4.85;0.98;;;;;;;22.21;41.71;100894.94;5032225;28;20656;-36
2023/07/25 09:01:18;;;;;;;2.55;0.98;;;;;;;22.22;42.15;100898.47;5032013;28;20188;-35
2023/07/25 09:03:47;;;;;;;1.67;0.60;;;;;;;22.23;41.84;100883.94;5028722;28;20455;-35
2023/07/25 09:06:14;;;;;;;2.58;0.90;;;;;;;22.24;41.60;100896.44;5031873;28;20049;-35
2023/07/25 09:08:41;;;;;;;2.65;1.08;;;;;;;22.25;41.45;100892.72;5031214;28;20049;-36
2023/07/25 09:11:09;;;;;;;4.00;0.80;;;;;;;22.21;40.98;100897.63;5030859;28;20045;-36
2023/07/25 09:13:37;;;;;;;5.18;1.15;;;;;;;22.23;40.79;100905.53;5029880;28;20053;-35
2023/07/25 09:16:04;;;;;;;1.95;0.55;;;;;;;22.22;40.47;100903.88;5031611;28;20129;-34
2023/07/25 09:18:31;;;;;;;2.05;0.57;;;;;;;22.21;40.63;100911.13;5024363;28;20052;-35
2023/07/25 09:20:58;;;;;;;8.98;1.17;;;;;;;22.24;40.33;100918.03;5028008;28;20425;-36
2023/07/25 09:23:25;;;;;;;5.15;0.75;;;;;;;22.25;40.15;100908.91;5033520;28;20056;-35
2023/07/25 09:26:03;;;;;;;2.47;0.68;;;;;;;22.24;39.11;100913.47;5030971;28;20045;-35
2023/07/25 09:28:31;;;;;;;2.55;0.50;;;;;;;22.26;39.42;100910.59;5031681;28;20049;-34
2023/07/25 09:31:03;;;;;;;1.45;0.57;;;;;;;22.28;39.45;100909.41;5033320;28;20123;-34
2023/07/25 09:33:30;;;;;;;1.80;0.45;;;;;;;22.28;39.36;100917.50;5034115;28;20136;-34
2023/07/25 09:35:58;;;;;;;0.98;0.60;;;;;;;22.31;39.23;100924.38;5034660;28;20576;-34
2023/07/25 09:38:25;;;;;;;1.85;0.55;;;;;;;22.31;38.81;100922.53;5034720;28;20053;-35
2023/07/25 09:40:51;;;;;;;2.17;0.65;;;;;;;22.33;38.72;100930.44;5037629;28;20049;-34
2023/07/25 09:43:25;;;;;;;2.03;0.77;;;;;;;22.32;38.70;100923.38;5033682;28;20056;-34
2023/07/25 09:45:52;;;;;;;0.90;0.40;;;;;;;22.33;38.90;100925.06;5039495;28;20049;-35
2023/07/25 09:48:20;;;;;;;3.83;0.70;;;;;;;22.34;38.66;100927.56;5039163;28;20045;-35
2023/07/25 09:50:47;;;;;;;4.05;0.65;;;;;;;22.34;38.79;100932.13;5033961;28;20345;-34
2023/07/25 09:53:16;;;;;;;1.33;0.60;;;;;;;22.36;38.31;100928.25;5037921;28;20064;-34
2023/07/25 09:55:44;;;;;;;1.08;0.70;;;;;;;22.38;38.29;100928.03;5034268;28;20369;-35
2023/07/25 09:58:11;;;;;;;4.55;0.60;;;;;;;22.41;38.74;100927.69;5033407;28;20095;-34
2023/07/25 10:00:40;;;;;;;1.20;0.40;;;;;;;22.46;38.62;100927.16;5034355;28;20387;-34
2023/07/25 10:03:09;;;;;;;4.32;0.70;;;;;;;22.48;38.74;100925.97;5034976;28;20095;-35
2023/07/25 10:05:46;;;;;;;1.30;0.50;;;;;;;22.49;38.57;100930.31;5033518;28;20045;-34
2023/07/25 10:08:15;;;;;;;3.58;0.70;;;;;;;22.50;38.61;100926.59;5040844;28;20432;-37
2023/07/25 10:10:42;;;;;;;2.53;0.70;;;;;;;22.50;38.47;100937.41;5035753;28;20096;-35
2023/07/25 10:13:09;;;;;;;1.45;0.70;;;;;;;22.52;38.30;100934.53;5034425;28;20373;-34
2023/07/25 10:15:38;;;;;;;2.78;0.60;;;;;;;22.55;38.57;100929.63;5034621;28;20056;-34
2023/07/25 10:18:19;;;;;;;2.60;0.75;;;;;;;22.57;38.23;100932.97;5034927;28;20361;-34
2023/07/25 10:20:48;;;;;;;1.13;0.60;;;;;;;22.61;38.18;100936.16;5031374;28;20139;-34
2023/07/25 10:23:15;;;;;;;2.25;0.75;;;;;;;22.61;38.18;100928.88;5035712;28;20053;-36
2023/07/25 10:25:41;;;;;;;1.75;0.60;;;;;;;22.62;38.54;100930.53;5036438;28;20049;-35
2023/07/25 10:28:10;;;;;;;3.72;0.80;;;;;;;22.62;38.49;100938.66;5037105;28;20442;-34
2023/07/25 10:30:45;;;;;;;2.85;0.70;;;;;;;22.60;37.84;100939.88;5035673;28;20418;-35
2023/07/25 10:33:16;;;;;;;3.08;0.77;;;;;;;22.58;38.51;100936.50;5036830;28;20041;-34
2023/07/25 10:35:53;;;;;;;5.07;0.50;;;;;;;22.58;38.13;100931.09;5035225;28;20068;-35
2023/07/25 10:38:34;;;;;;;4.68;0.88;;;;;;;22.57;38.47;100941.06;5031243;28;20402;-34
2023/07/25 10:41:10;;;;;;;2.20;0.57;;;;;;;22.58;38.60;100948.13;5029541;28;20391;-34
2023/07/25 10:43:46;;;;;;;5.90;0.75;;;;;;;22.57;38.58;100943.75;5033208;28;20089;-34
2023/07/25 10:46:19;;;;;;;2.85;0.70;;;;;;;22.58;38.68;100940.03;5031209;28;20338;-34
2023/07/25 10:48:48;;;;;;;3.77;1.10;;;;;;;22.60;38.75;100946.13;5031599;28;20378;-35
2023/07/25 10:51:17;;;;;;;3.00;0.70;;;;;;;22.63;39.04;100944.88;5028266;28;20064;-34
2023/07/25 10:54:08;;;;;;;2.67;0.80;;;;;;;22.59;39.06;100944.44;5044578;28;20140;-34
2023/07/25 10:56:36;;;;;;;3.63;0.77;;;;;;;22.62;38.95;100951.31;5043378;28;20095;-34
2023/07/25 10:59:02;;;;;;;4.55;0.95;;;;;;;22.61;39.22;100941.53;5038779;28;20401;-34
2023/07/25 11:01:38;;;;;;;2.58;0.80;;;;;;;22.60;38.98;100940.72;5037455;28;20049;-34
2023/07/25 11:04:21;;;;;;;2.65;0.70;;;;;;;22.57;38.61;100946.47;5039913;28;20050;-34
2023/07/25 11:06:53;;;;;;;2.85;0.93;;;;;;;22.59;38.36;100952.53;5032629;28;20132;-34
2023/07/25 11:09:23;;;;;;;6.43;0.80;;;;;;;22.59;38.33;100944.44;5032287;28;20092;-34
2023/07/25 11:11:52;;;;;;;2.20;0.57;;;;;;;22.62;38.29;100943.22;5033169;28;20084;-35
2023/07/25 11:14:20;;;;;;;1.55;0.77;;;;;;;22.63;38.42;100943.06;5030694;28;20053;-34
2023/07/25 11:16:49;;;;;;;2.67;0.70;;;;;;;22.63;38.68;100943.06;5030188;28;20060;-34
2023/07/25 11:19:16;;;;;;;3.40;0.70;;;;;;;22.65;38.65;100950.97;5031060;28;20045;-34
2023/07/25 11:21:45;;;;;;;3.47;0.63;;;;;;;22.65;39.03;100948.25;5031383;28;20063;-34
2023/07/25 11:24:12;;;;;;;4.18;0.50;;;;;;;22.64;38.93;100947.44;5035055;28;20049;-35